CCA57 ZYTX-ZULS
Flight info
| Callsign | CCA57 |
|---|---|
| Flight time | 4h 48m |
| Altitude | FL276 |
| Route | OMD62D OMDUS A575 IGIVU/K0872S0920 A575 UKDUM G212 BUMDU W47 ASAVA W45 VAGBI B215 GODON W43 SAVPA W696 MENED W276 ANRUG W279 ONEBA G212 BUPMI/K0880S0980 G212 JTG W236 CTU B213 IGELA W522 IGDAG IGD10A |
| Aircraft | A319/M-SDE2E3FGILRWXY/LB1D1 |
Departure
| Time | 2026-04-28 08:08 |
|---|---|
| Airport | Shenyang Taoxian International Airport (ZYTX) |
Arrival
| Time | 2026-04-28 12:57 |
|---|---|
| Airport | Lhasa Gonggar International Airport (ZULS) |
| Time | Latitude | Longitude | Altitude | Speed | Heading |
|---|---|---|---|---|---|
| 2026-04-28 07:48 | 41.63585 | 123.48373 | 184 ft | 0 kts | 318° |
| 2026-04-28 07:56 | 41.63576 | 123.48384 | 180 ft | 4 kts | 318° |
| 2026-04-28 07:56 | 41.63571 | 123.48389 | 184 ft | 0 kts | 318° |
| 2026-04-28 08:00 | 41.63573 | 123.48388 | 184 ft | 1 kts | 318° |
| 2026-04-28 08:00 | 41.63595 | 123.48361 | 184 ft | 8 kts | 318° |
| 2026-04-28 08:01 | 41.63664 | 123.48332 | 192 ft | 12 kts | 5° |
| 2026-04-28 08:01 | 41.63706 | 123.48272 | 184 ft | 11 kts | 249° |
| 2026-04-28 08:01 | 41.63657 | 123.48194 | 183 ft | 11 kts | 229° |
| 2026-04-28 08:01 | 41.63603 | 123.48111 | 182 ft | 12 kts | 229° |
| 2026-04-28 08:02 | 41.63545 | 123.48019 | 181 ft | 13 kts | 230° |
| 2026-04-28 08:02 | 41.63482 | 123.47922 | 181 ft | 14 kts | 227° |
| 2026-04-28 08:02 | 41.63414 | 123.47822 | 180 ft | 15 kts | 227° |
| 2026-04-28 08:02 | 41.63343 | 123.47717 | 179 ft | 16 kts | 228° |
| 2026-04-28 08:03 | 41.63269 | 123.47607 | 178 ft | 16 kts | 228° |
| 2026-04-28 08:03 | 41.63193 | 123.47492 | 177 ft | 17 kts | 229° |
| 2026-04-28 08:03 | 41.63116 | 123.47372 | 176 ft | 17 kts | 230° |
| 2026-04-28 08:03 | 41.63036 | 123.47249 | 174 ft | 18 kts | 229° |
| 2026-04-28 08:04 | 41.62954 | 123.47121 | 173 ft | 17 kts | 230° |
| 2026-04-28 08:04 | 41.62957 | 123.47024 | 173 ft | 9 kts | 314° |
| 2026-04-28 08:04 | 41.62980 | 123.46997 | 173 ft | 0 kts | 319° |
| 2026-04-28 08:05 | 41.62981 | 123.46996 | 173 ft | 1 kts | 319° |
| 2026-04-28 08:05 | 41.62986 | 123.46990 | 173 ft | 1 kts | 319° |
| 2026-04-28 08:05 | 41.63000 | 123.46973 | 173 ft | 4 kts | 319° |
| 2026-04-28 08:06 | 41.63033 | 123.46938 | 172 ft | 8 kts | 328° |
| 2026-04-28 08:06 | 41.63083 | 123.46958 | 173 ft | 8 kts | 47° |
| 2026-04-28 08:06 | 41.63089 | 123.46968 | 173 ft | 0 kts | 48° |
| 2026-04-28 08:07 | 41.63100 | 123.46985 | 173 ft | 12 kts | 48° |
| 2026-04-28 08:07 | 41.63317 | 123.47307 | 178 ft | 78 kts | 48° |
| 2026-04-28 08:08 | 41.63804 | 123.48041 | 188 ft | 131 kts | 48° |
| 2026-04-28 08:08 | 41.64510 | 123.49086 | 276 ft | 164 kts | 46° |
| 2026-04-28 08:08 | 41.65253 | 123.50209 | 843 ft | 162 kts | 47° |
| 2026-04-28 08:08 | 41.65995 | 123.51334 | 1435 ft | 161 kts | 44° |
| 2026-04-28 08:09 | 41.66735 | 123.52455 | 2002 ft | 161 kts | 44° |
| 2026-04-28 08:09 | 41.67474 | 123.53574 | 2543 ft | 161 kts | 44° |
| 2026-04-28 08:09 | 41.68215 | 123.54701 | 3119 ft | 162 kts | 44° |
| 2026-04-28 08:09 | 41.68967 | 123.55838 | 3577 ft | 170 kts | 43° |
| 2026-04-28 08:10 | 41.69807 | 123.57092 | 3820 ft | 192 kts | 44° |
| 2026-04-28 08:10 | 41.70667 | 123.58594 | 4038 ft | 217 kts | 59° |
| 2026-04-28 08:10 | 41.71055 | 123.60658 | 4267 ft | 246 kts | 86° |
| 2026-04-28 08:10 | 41.71002 | 123.63047 | 4686 ft | 265 kts | 88° |
| 2026-04-28 08:11 | 41.70935 | 123.65531 | 5369 ft | 271 kts | 88° |
| 2026-04-28 08:11 | 41.70865 | 123.68063 | 6125 ft | 274 kts | 89° |
| 2026-04-28 08:11 | 41.70795 | 123.70610 | 6900 ft | 276 kts | 89° |
| 2026-04-28 08:11 | 41.70727 | 123.73187 | 7650 ft | 279 kts | 88° |
| 2026-04-28 08:12 | 41.70662 | 123.75794 | 8344 ft | 283 kts | 89° |
| 2026-04-28 08:12 | 41.70630 | 123.78431 | 9080 ft | 284 kts | 82° |
| 2026-04-28 08:12 | 41.70999 | 123.81019 | 9784 ft | 284 kts | 68° |
| 2026-04-28 08:12 | 41.71814 | 123.83419 | 10430 ft | 285 kts | 59° |
| 2026-04-28 08:13 | 41.72731 | 123.85780 | 11068 ft | 288 kts | 59° |
| 2026-04-28 08:13 | 41.73619 | 123.88207 | 11700 ft | 294 kts | 67° |
| 2026-04-28 08:13 | 41.73883 | 123.90939 | 12286 ft | 305 kts | 95° |
| 2026-04-28 08:13 | 41.73176 | 123.93629 | 12870 ft | 314 kts | 123° |
| 2026-04-28 08:14 | 41.71592 | 123.95638 | 13473 ft | 319 kts | 150° |
| 2026-04-28 08:14 | 41.69584 | 123.96921 | 14055 ft | 323 kts | 165° |
| 2026-04-28 08:14 | 41.67372 | 123.97283 | 14588 ft | 323 kts | 187° |
| 2026-04-28 08:14 | 41.65219 | 123.96543 | 15065 ft | 324 kts | 208° |
| 2026-04-28 08:15 | 41.63379 | 123.94762 | 15184 ft | 334 kts | 232° |
| 2026-04-28 08:15 | 41.62088 | 123.92142 | 15315 ft | 346 kts | 244° |
| 2026-04-28 08:15 | 41.60902 | 123.89306 | 15440 ft | 362 kts | 244° |
| 2026-04-28 08:15 | 41.59656 | 123.86330 | 15568 ft | 378 kts | 244° |
| 2026-04-28 08:16 | 41.58342 | 123.83217 | 15698 ft | 393 kts | 244° |
| 2026-04-28 08:16 | 41.56978 | 123.80003 | 15946 ft | 403 kts | 243° |
| 2026-04-28 08:16 | 41.55775 | 123.76628 | 16377 ft | 404 kts | 253° |
| 2026-04-28 08:16 | 41.55064 | 123.73019 | 16851 ft | 403 kts | 264° |
| 2026-04-28 08:17 | 41.54878 | 123.69297 | 17316 ft | 403 kts | 275° |
| 2026-04-28 08:17 | 41.55191 | 123.65600 | 17773 ft | 403 kts | 282° |
| 2026-04-28 08:17 | 41.55633 | 123.61898 | 18219 ft | 406 kts | 281° |
| 2026-04-28 08:17 | 41.56071 | 123.58175 | 18604 ft | 409 kts | 281° |
| 2026-04-28 08:18 | 41.56496 | 123.54424 | 18990 ft | 411 kts | 280° |
| 2026-04-28 08:18 | 41.56826 | 123.50619 | 19349 ft | 415 kts | 278° |
| 2026-04-28 08:18 | 41.57065 | 123.46774 | 19710 ft | 418 kts | 276° |
| 2026-04-28 08:18 | 41.57255 | 123.42897 | 20075 ft | 420 kts | 276° |
| 2026-04-28 08:19 | 41.57433 | 123.39006 | 20429 ft | 422 kts | 276° |
| 2026-04-28 08:19 | 41.57618 | 123.35113 | 20774 ft | 424 kts | 276° |
| 2026-04-28 08:19 | 41.57824 | 123.31180 | 21124 ft | 426 kts | 276° |
| 2026-04-28 08:19 | 41.58043 | 123.27228 | 21470 ft | 429 kts | 276° |
| 2026-04-28 08:20 | 41.58276 | 123.23263 | 21787 ft | 430 kts | 277° |
| 2026-04-28 08:20 | 41.58612 | 123.19290 | 22116 ft | 432 kts | 280° |
| 2026-04-28 08:20 | 41.59063 | 123.15326 | 22434 ft | 433 kts | 281° |
| 2026-04-28 08:20 | 41.59580 | 123.11364 | 22752 ft | 435 kts | 282° |
| 2026-04-28 08:21 | 41.60118 | 123.07380 | 23064 ft | 437 kts | 282° |
| 2026-04-28 08:21 | 41.60648 | 123.03378 | 23355 ft | 440 kts | 282° |
| 2026-04-28 08:21 | 41.61159 | 122.99349 | 23636 ft | 442 kts | 281° |
| 2026-04-28 08:21 | 41.61649 | 122.95300 | 23894 ft | 443 kts | 281° |
| 2026-04-28 08:22 | 41.62122 | 122.91234 | 24146 ft | 445 kts | 281° |
| 2026-04-28 08:22 | 41.62588 | 122.87149 | 24396 ft | 446 kts | 281° |
| 2026-04-28 08:22 | 41.63055 | 122.83054 | 24644 ft | 447 kts | 281° |
| 2026-04-28 08:22 | 41.63524 | 122.78949 | 24889 ft | 448 kts | 280° |
| 2026-04-28 08:23 | 41.63992 | 122.74837 | 25129 ft | 449 kts | 280° |
| 2026-04-28 08:23 | 41.64463 | 122.70710 | 25365 ft | 451 kts | 281° |
| 2026-04-28 08:23 | 41.64940 | 122.66573 | 25607 ft | 452 kts | 281° |
| 2026-04-28 08:23 | 41.65419 | 122.62424 | 25807 ft | 453 kts | 281° |
| 2026-04-28 08:24 | 41.65897 | 122.58264 | 26029 ft | 454 kts | 280° |
| 2026-04-28 08:24 | 41.66370 | 122.54104 | 26368 ft | 453 kts | 280° |
| 2026-04-28 08:24 | 41.66835 | 122.49982 | 26712 ft | 451 kts | 280° |
| 2026-04-28 08:24 | 41.67300 | 122.45851 | 27059 ft | 450 kts | 280° |
| 2026-04-28 08:25 | 41.67763 | 122.41730 | 27412 ft | 448 kts | 280° |
| 2026-04-28 08:25 | 41.68222 | 122.37627 | 27759 ft | 447 kts | 280° |
| 2026-04-28 08:25 | 41.68683 | 122.33529 | 28120 ft | 445 kts | 280° |
| 2026-04-28 08:26 | 41.69593 | 122.25370 | 28764 ft | 445 kts | 280° |
| 2026-04-28 08:26 | 41.70047 | 122.21285 | 29072 ft | 444 kts | 280° |
| 2026-04-28 08:26 | 41.70498 | 122.17213 | 29405 ft | 444 kts | 279° |
| 2026-04-28 08:26 | 41.70696 | 122.13124 | 29751 ft | 445 kts | 271° |
| 2026-04-28 08:27 | 41.70439 | 122.09001 | 30101 ft | 447 kts | 263° |
| 2026-04-28 08:27 | 41.69870 | 122.04924 | 30409 ft | 446 kts | 262° |
| 2026-04-28 08:27 | 41.69297 | 122.00866 | 30731 ft | 444 kts | 262° |
| 2026-04-28 08:27 | 41.68731 | 121.96824 | 31083 ft | 441 kts | 262° |
| 2026-04-28 08:28 | 41.68172 | 121.92811 | 31446 ft | 439 kts | 262° |
| 2026-04-28 08:28 | 41.67616 | 121.88831 | 31862 ft | 434 kts | 262° |
| 2026-04-28 08:28 | 41.67068 | 121.84922 | 32132 ft | 430 kts | 262° |
| 2026-04-28 08:29 | 41.65970 | 121.77090 | 32193 ft | 429 kts | 262° |
| 2026-04-28 08:29 | 41.64863 | 121.69268 | 32193 ft | 429 kts | 261° |
| 2026-04-28 08:30 | 41.63749 | 121.61456 | 32200 ft | 429 kts | 261° |
| 2026-04-28 08:30 | 41.62630 | 121.53638 | 32197 ft | 429 kts | 261° |
| 2026-04-28 08:31 | 41.61504 | 121.45823 | 32187 ft | 429 kts | 261° |
| 2026-04-28 08:31 | 41.60372 | 121.38032 | 32201 ft | 428 kts | 261° |
| 2026-04-28 08:32 | 41.59238 | 121.30224 | 32186 ft | 429 kts | 261° |
| 2026-04-28 08:32 | 41.58096 | 121.22408 | 32180 ft | 430 kts | 261° |
| 2026-04-28 08:33 | 41.57318 | 121.14531 | 32187 ft | 428 kts | 268° |
| 2026-04-28 08:33 | 41.56949 | 121.06630 | 32185 ft | 429 kts | 268° |
| 2026-04-28 08:34 | 41.56554 | 120.98722 | 32172 ft | 429 kts | 267° |
| 2026-04-28 08:34 | 41.56150 | 120.90815 | 32192 ft | 427 kts | 268° |
| 2026-04-28 08:35 | 41.55749 | 120.82910 | 32191 ft | 428 kts | 268° |
| 2026-04-28 08:35 | 41.55349 | 120.75023 | 32193 ft | 428 kts | 268° |
| 2026-04-28 08:36 | 41.54936 | 120.67113 | 32189 ft | 428 kts | 268° |
| 2026-04-28 08:36 | 41.54518 | 120.59208 | 32196 ft | 428 kts | 268° |
| 2026-04-28 08:37 | 41.54097 | 120.51293 | 32194 ft | 428 kts | 268° |
| 2026-04-28 08:37 | 41.53666 | 120.43368 | 32174 ft | 430 kts | 268° |
| 2026-04-28 08:38 | 41.53445 | 120.35415 | 32178 ft | 429 kts | 271° |
| 2026-04-28 08:38 | 41.53422 | 120.27474 | 32189 ft | 429 kts | 271° |
| 2026-04-28 08:39 | 41.53379 | 120.19535 | 32200 ft | 429 kts | 271° |
| 2026-04-28 08:39 | 41.53277 | 120.11595 | 32197 ft | 429 kts | 270° |
| 2026-04-28 08:40 | 41.53147 | 120.03647 | 32194 ft | 430 kts | 270° |
| 2026-04-28 08:40 | 41.53015 | 119.95671 | 32196 ft | 431 kts | 270° |
| 2026-04-28 08:41 | 41.52878 | 119.87678 | 32202 ft | 432 kts | 270° |
| 2026-04-28 08:41 | 41.52739 | 119.79671 | 32203 ft | 432 kts | 270° |
| 2026-04-28 08:42 | 41.52602 | 119.71683 | 32227 ft | 430 kts | 270° |
| 2026-04-28 08:42 | 41.52461 | 119.63711 | 32220 ft | 431 kts | 270° |
| 2026-04-28 08:43 | 41.52312 | 119.55763 | 32222 ft | 431 kts | 270° |
| 2026-04-28 08:43 | 41.52152 | 119.47779 | 32221 ft | 431 kts | 270° |
| 2026-04-28 08:44 | 41.51986 | 119.39801 | 32223 ft | 431 kts | 270° |
| 2026-04-28 08:44 | 41.51819 | 119.31815 | 32220 ft | 432 kts | 270° |
| 2026-04-28 08:45 | 41.51647 | 119.23807 | 32210 ft | 434 kts | 270° |
| 2026-04-28 08:45 | 41.51469 | 119.15764 | 32211 ft | 435 kts | 270° |
| 2026-04-28 08:46 | 41.51279 | 119.07716 | 32231 ft | 434 kts | 270° |
| 2026-04-28 08:46 | 41.51084 | 118.99698 | 32249 ft | 433 kts | 270° |
| 2026-04-28 08:47 | 41.50886 | 118.91699 | 32245 ft | 432 kts | 270° |
| 2026-04-28 08:47 | 41.50682 | 118.83692 | 32232 ft | 433 kts | 270° |
| 2026-04-28 08:48 | 41.50470 | 118.75669 | 32229 ft | 434 kts | 270° |
| 2026-04-28 08:48 | 41.50279 | 118.67635 | 32229 ft | 434 kts | 270° |
| 2026-04-28 08:49 | 41.50106 | 118.59595 | 32231 ft | 434 kts | 270° |
| 2026-04-28 08:49 | 41.49926 | 118.51556 | 32223 ft | 435 kts | 270° |
| 2026-04-28 08:50 | 41.48863 | 118.43605 | 32220 ft | 442 kts | 252° |
| 2026-04-28 08:50 | 41.46017 | 118.36296 | 32220 ft | 448 kts | 241° |
| 2026-04-28 08:51 | 41.42761 | 118.29220 | 32224 ft | 449 kts | 241° |
| 2026-04-28 08:51 | 41.39502 | 118.22128 | 32226 ft | 450 kts | 241° |
| 2026-04-28 08:52 | 41.36239 | 118.15048 | 32249 ft | 448 kts | 242° |
| 2026-04-28 08:52 | 41.32984 | 118.08004 | 32257 ft | 447 kts | 242° |
| 2026-04-28 08:53 | 41.29733 | 118.00979 | 32243 ft | 447 kts | 241° |
| 2026-04-28 08:53 | 41.26474 | 117.93947 | 32221 ft | 448 kts | 242° |
| 2026-04-28 08:54 | 41.23208 | 117.86931 | 32262 ft | 446 kts | 241° |
| 2026-04-28 08:54 | 41.19952 | 117.79953 | 32273 ft | 445 kts | 241° |
| 2026-04-28 08:55 | 41.16703 | 117.72998 | 32264 ft | 444 kts | 241° |
| 2026-04-28 08:55 | 41.13455 | 117.66068 | 32262 ft | 442 kts | 242° |
| 2026-04-28 08:56 | 41.10220 | 117.59195 | 32278 ft | 438 kts | 242° |
| 2026-04-28 08:56 | 41.07005 | 117.52372 | 32281 ft | 436 kts | 242° |
| 2026-04-28 08:57 | 41.03249 | 117.46070 | 32276 ft | 443 kts | 225° |
| 2026-04-28 08:57 | 40.97986 | 117.41753 | 32246 ft | 456 kts | 207° |
| 2026-04-28 08:58 | 40.92072 | 117.38759 | 32260 ft | 456 kts | 206° |
| 2026-04-28 08:58 | 40.86178 | 117.35730 | 32265 ft | 455 kts | 207° |
| 2026-04-28 08:59 | 40.80289 | 117.32713 | 32265 ft | 454 kts | 207° |
| 2026-04-28 08:59 | 40.74620 | 117.29280 | 32285 ft | 442 kts | 219° |
| 2026-04-28 09:00 | 40.70164 | 117.23980 | 32280 ft | 427 kts | 237° |
| 2026-04-28 09:00 | 40.67183 | 117.17364 | 32281 ft | 418 kts | 248° |
| 2026-04-28 09:01 | 40.64544 | 117.10620 | 32296 ft | 416 kts | 247° |
| 2026-04-28 09:01 | 40.61906 | 117.03884 | 32297 ft | 414 kts | 247° |
| 2026-04-28 09:02 | 40.59276 | 116.97174 | 32296 ft | 413 kts | 247° |
| 2026-04-28 09:02 | 40.56649 | 116.90476 | 32281 ft | 412 kts | 247° |
| 2026-04-28 09:03 | 40.54026 | 116.83825 | 32287 ft | 410 kts | 247° |
| 2026-04-28 09:03 | 40.51401 | 116.77186 | 32266 ft | 410 kts | 247° |
| 2026-04-28 09:04 | 40.48787 | 116.70550 | 32261 ft | 409 kts | 247° |
| 2026-04-28 09:04 | 40.46162 | 116.63921 | 32261 ft | 409 kts | 247° |
| 2026-04-28 09:05 | 40.43530 | 116.57315 | 32250 ft | 406 kts | 248° |
| 2026-04-28 09:05 | 40.40933 | 116.50792 | 32263 ft | 404 kts | 247° |
| 2026-04-28 09:06 | 40.38335 | 116.44256 | 32256 ft | 406 kts | 247° |
| 2026-04-28 09:06 | 40.35719 | 116.37711 | 32252 ft | 407 kts | 247° |
| 2026-04-28 09:07 | 40.32823 | 116.31322 | 32251 ft | 415 kts | 237° |
| 2026-04-28 09:07 | 40.29113 | 116.25613 | 32286 ft | 405 kts | 237° |
| 2026-04-28 09:08 | 40.25452 | 116.19972 | 32271 ft | 410 kts | 236° |
| 2026-04-28 09:08 | 40.21770 | 116.14280 | 32274 ft | 411 kts | 236° |
| 2026-04-28 09:09 | 40.18091 | 116.08592 | 32271 ft | 411 kts | 236° |
| 2026-04-28 09:09 | 40.14395 | 116.02914 | 32271 ft | 411 kts | 236° |
| 2026-04-28 09:10 | 40.10690 | 115.97244 | 32271 ft | 411 kts | 236° |
| 2026-04-28 09:10 | 40.06980 | 115.91584 | 32259 ft | 412 kts | 236° |
| 2026-04-28 09:11 | 40.03259 | 115.85894 | 32234 ft | 414 kts | 236° |
| 2026-04-28 09:11 | 39.99506 | 115.80181 | 32270 ft | 419 kts | 236° |
| 2026-04-28 09:12 | 39.95709 | 115.74398 | 32279 ft | 421 kts | 236° |
| 2026-04-28 09:12 | 39.91908 | 115.68614 | 32277 ft | 421 kts | 236° |
| 2026-04-28 09:13 | 39.88093 | 115.62835 | 32282 ft | 423 kts | 236° |
| 2026-04-28 09:13 | 39.84264 | 115.57064 | 32261 ft | 420 kts | 236° |
| 2026-04-28 09:14 | 39.80472 | 115.51344 | 32279 ft | 418 kts | 236° |
| 2026-04-28 09:14 | 39.76719 | 115.45604 | 32281 ft | 414 kts | 240° |
| 2026-04-28 09:15 | 39.73928 | 115.39216 | 32279 ft | 406 kts | 248° |
| 2026-04-28 09:15 | 39.71375 | 115.32760 | 32283 ft | 396 kts | 248° |
| 2026-04-28 09:16 | 39.68867 | 115.26452 | 32288 ft | 394 kts | 248° |
| 2026-04-28 09:16 | 39.66359 | 115.20144 | 32288 ft | 394 kts | 248° |
| 2026-04-28 09:17 | 39.63844 | 115.13836 | 32290 ft | 395 kts | 248° |
| 2026-04-28 09:17 | 39.61312 | 115.07526 | 32286 ft | 395 kts | 248° |
| 2026-04-28 09:18 | 39.58809 | 115.01260 | 32290 ft | 389 kts | 248° |
| 2026-04-28 09:18 | 39.56323 | 114.95047 | 32288 ft | 389 kts | 249° |
| 2026-04-28 09:19 | 39.53834 | 114.88833 | 32285 ft | 390 kts | 248° |
| 2026-04-28 09:19 | 39.51334 | 114.82614 | 32284 ft | 390 kts | 248° |
| 2026-04-28 09:20 | 39.48831 | 114.76401 | 32271 ft | 390 kts | 248° |
| 2026-04-28 09:20 | 39.46325 | 114.70204 | 32263 ft | 387 kts | 248° |
| 2026-04-28 09:21 | 39.43838 | 114.64085 | 32279 ft | 384 kts | 248° |
| 2026-04-28 09:21 | 39.41366 | 114.57977 | 32281 ft | 384 kts | 248° |
| 2026-04-28 09:22 | 39.38885 | 114.51878 | 32291 ft | 384 kts | 248° |
| 2026-04-28 09:22 | 39.36402 | 114.45797 | 32292 ft | 384 kts | 248° |
| 2026-04-28 09:23 | 39.33910 | 114.39711 | 32277 ft | 384 kts | 248° |
| 2026-04-28 09:23 | 39.31421 | 114.33649 | 32282 ft | 382 kts | 248° |
| 2026-04-28 09:24 | 39.28939 | 114.27594 | 32298 ft | 382 kts | 248° |
| 2026-04-28 09:24 | 39.26470 | 114.21546 | 32295 ft | 382 kts | 249° |
| 2026-04-28 09:25 | 39.23437 | 114.15859 | 32305 ft | 399 kts | 233° |
| 2026-04-28 09:25 | 39.21193 | 114.13667 | 32305 ft | 415 kts | 221° |
| 2026-04-28 09:25 | 39.18494 | 114.12140 | 32266 ft | 435 kts | 209° |
| 2026-04-28 09:26 | 39.12653 | 114.10057 | 32316 ft | 435 kts | 208° |
| 2026-04-28 09:26 | 39.06840 | 114.08012 | 32323 ft | 433 kts | 208° |
| 2026-04-28 09:27 | 38.98157 | 114.04928 | 32254 ft | 432 kts | 208° |
| 2026-04-28 09:27 | 38.92415 | 114.02905 | 32294 ft | 427 kts | 209° |
| 2026-04-28 09:28 | 38.86713 | 114.00881 | 32305 ft | 425 kts | 208° |
| 2026-04-28 09:28 | 38.81027 | 113.98863 | 32310 ft | 425 kts | 208° |
| 2026-04-28 09:29 | 38.75353 | 113.96857 | 32291 ft | 423 kts | 208° |
| 2026-04-28 09:29 | 38.69709 | 113.94869 | 32305 ft | 421 kts | 208° |
| 2026-04-28 09:30 | 38.64069 | 113.92885 | 32305 ft | 420 kts | 208° |
| 2026-04-28 09:30 | 38.58458 | 113.90913 | 32301 ft | 418 kts | 208° |
| 2026-04-28 09:31 | 38.52859 | 113.88940 | 32304 ft | 419 kts | 208° |
| 2026-04-28 09:31 | 38.47248 | 113.86973 | 32300 ft | 419 kts | 208° |
| 2026-04-28 09:32 | 38.41648 | 113.85021 | 32298 ft | 419 kts | 208° |
| 2026-04-28 09:32 | 38.38919 | 113.83921 | 32260 ft | 407 kts | 215° |
| 2026-04-28 09:32 | 38.36456 | 113.82293 | 32293 ft | 393 kts | 224° |
| 2026-04-28 09:33 | 38.34343 | 113.80194 | 32296 ft | 381 kts | 232° |
| 2026-04-28 09:33 | 38.32608 | 113.77718 | 32288 ft | 371 kts | 240° |
| 2026-04-28 09:33 | 38.30181 | 113.72044 | 32326 ft | 364 kts | 249° |
| 2026-04-28 09:34 | 38.27989 | 113.66241 | 32318 ft | 365 kts | 248° |
| 2026-04-28 09:34 | 38.25790 | 113.60446 | 32301 ft | 365 kts | 249° |
| 2026-04-28 09:35 | 38.23586 | 113.54643 | 32275 ft | 366 kts | 248° |
| 2026-04-28 09:35 | 38.21375 | 113.48816 | 32280 ft | 368 kts | 248° |
| 2026-04-28 09:36 | 38.19151 | 113.42981 | 32287 ft | 367 kts | 248° |
| 2026-04-28 09:36 | 38.16929 | 113.37166 | 32327 ft | 366 kts | 248° |
| 2026-04-28 09:37 | 38.14740 | 113.31354 | 32314 ft | 365 kts | 249° |
| 2026-04-28 09:37 | 38.12589 | 113.25543 | 32311 ft | 364 kts | 249° |
| 2026-04-28 09:38 | 38.10441 | 113.19740 | 32241 ft | 364 kts | 247° |
| 2026-04-28 09:38 | 38.08252 | 113.13900 | 32261 ft | 368 kts | 248° |
| 2026-04-28 09:39 | 38.06058 | 113.08045 | 32306 ft | 368 kts | 248° |
| 2026-04-28 09:39 | 38.03862 | 113.02203 | 32303 ft | 367 kts | 248° |
| 2026-04-28 09:40 | 38.01666 | 112.96378 | 32288 ft | 366 kts | 249° |
| 2026-04-28 09:40 | 37.99475 | 112.90564 | 32286 ft | 366 kts | 248° |
| 2026-04-28 09:41 | 37.97285 | 112.84754 | 32278 ft | 365 kts | 248° |
| 2026-04-28 09:41 | 37.95093 | 112.78960 | 32241 ft | 366 kts | 248° |
| 2026-04-28 09:42 | 37.92895 | 112.73157 | 32241 ft | 367 kts | 248° |
| 2026-04-28 09:42 | 37.90686 | 112.67335 | 32246 ft | 368 kts | 248° |
| 2026-04-28 09:43 | 37.88462 | 112.61516 | 32245 ft | 368 kts | 248° |
| 2026-04-28 09:43 | 37.86190 | 112.55716 | 32247 ft | 369 kts | 246° |
| 2026-04-28 09:44 | 37.83757 | 112.50001 | 32251 ft | 370 kts | 245° |
| 2026-04-28 09:44 | 37.81294 | 112.44299 | 32234 ft | 371 kts | 245° |
| 2026-04-28 09:45 | 37.78819 | 112.38531 | 32255 ft | 375 kts | 245° |
| 2026-04-28 09:45 | 37.76398 | 112.32718 | 32258 ft | 374 kts | 246° |
| 2026-04-28 09:46 | 37.74151 | 112.26815 | 32273 ft | 373 kts | 248° |
| 2026-04-28 09:46 | 37.71945 | 112.20894 | 32277 ft | 374 kts | 247° |
| 2026-04-28 09:47 | 37.69703 | 112.14986 | 32274 ft | 374 kts | 247° |
| 2026-04-28 09:47 | 37.67439 | 112.09103 | 32242 ft | 374 kts | 246° |
| 2026-04-28 09:48 | 37.65154 | 112.03186 | 32258 ft | 377 kts | 246° |
| 2026-04-28 09:48 | 37.62858 | 111.97236 | 32257 ft | 378 kts | 246° |
| 2026-04-28 09:49 | 37.60560 | 111.91280 | 32262 ft | 378 kts | 246° |
| 2026-04-28 09:49 | 37.58260 | 111.85325 | 32258 ft | 378 kts | 246° |
| 2026-04-28 09:50 | 37.55953 | 111.79386 | 32285 ft | 379 kts | 246° |
| 2026-04-28 09:50 | 37.53642 | 111.73447 | 32289 ft | 378 kts | 246° |
| 2026-04-28 09:51 | 37.51248 | 111.67580 | 32243 ft | 379 kts | 240° |
| 2026-04-28 09:51 | 37.47699 | 111.62602 | 32244 ft | 386 kts | 231° |
| 2026-04-28 09:52 | 37.43883 | 111.57873 | 32248 ft | 387 kts | 231° |
| 2026-04-28 09:52 | 37.40058 | 111.53128 | 32234 ft | 387 kts | 231° |
| 2026-04-28 09:53 | 37.36238 | 111.48387 | 32233 ft | 387 kts | 231° |
| 2026-04-28 09:53 | 37.32409 | 111.43644 | 32216 ft | 389 kts | 230° |
| 2026-04-28 09:54 | 37.28553 | 111.38885 | 32223 ft | 389 kts | 230° |
| 2026-04-28 09:54 | 37.24695 | 111.34132 | 32230 ft | 389 kts | 230° |
| 2026-04-28 09:55 | 37.20841 | 111.29385 | 32219 ft | 389 kts | 230° |
| 2026-04-28 09:55 | 37.16985 | 111.24647 | 32223 ft | 389 kts | 230° |
| 2026-04-28 09:56 | 37.13137 | 111.19921 | 32199 ft | 390 kts | 230° |
| 2026-04-28 09:56 | 37.09271 | 111.15173 | 32199 ft | 390 kts | 230° |
| 2026-04-28 09:57 | 37.05399 | 111.10438 | 32229 ft | 390 kts | 231° |
| 2026-04-28 09:57 | 37.01535 | 111.05697 | 32230 ft | 390 kts | 231° |
| 2026-04-28 09:58 | 36.97664 | 111.00969 | 32223 ft | 389 kts | 230° |
| 2026-04-28 09:58 | 36.93789 | 110.96264 | 32214 ft | 389 kts | 230° |
| 2026-04-28 09:59 | 36.89909 | 110.91557 | 32218 ft | 389 kts | 230° |
| 2026-04-28 09:59 | 36.86058 | 110.86827 | 32216 ft | 386 kts | 234° |
| 2026-04-28 10:00 | 36.83020 | 110.81441 | 32219 ft | 381 kts | 240° |
| 2026-04-28 10:00 | 36.80102 | 110.75929 | 32197 ft | 382 kts | 240° |
| 2026-04-28 10:01 | 36.77151 | 110.70399 | 32208 ft | 385 kts | 240° |
| 2026-04-28 10:01 | 36.74191 | 110.64852 | 32216 ft | 385 kts | 240° |
| 2026-04-28 10:02 | 36.71236 | 110.59314 | 32219 ft | 384 kts | 240° |
| 2026-04-28 10:02 | 36.68279 | 110.53783 | 32207 ft | 384 kts | 240° |
| 2026-04-28 10:03 | 36.65326 | 110.48256 | 32216 ft | 384 kts | 240° |
| 2026-04-28 10:03 | 36.62363 | 110.42732 | 32175 ft | 385 kts | 239° |
| 2026-04-28 10:04 | 36.59385 | 110.37182 | 32232 ft | 387 kts | 239° |
| 2026-04-28 10:04 | 36.56395 | 110.31620 | 32233 ft | 387 kts | 239° |
| 2026-04-28 10:05 | 36.53406 | 110.26070 | 32233 ft | 387 kts | 239° |
| 2026-04-28 10:05 | 36.50411 | 110.20524 | 32236 ft | 387 kts | 239° |
| 2026-04-28 10:06 | 36.47422 | 110.14992 | 32234 ft | 386 kts | 239° |
| 2026-04-28 10:06 | 36.44431 | 110.09460 | 32194 ft | 387 kts | 239° |
| 2026-04-28 10:07 | 36.41426 | 110.03927 | 32212 ft | 388 kts | 239° |
| 2026-04-28 10:07 | 36.38445 | 109.98441 | 32212 ft | 388 kts | 239° |
| 2026-04-28 10:08 | 36.35434 | 109.92900 | 32219 ft | 388 kts | 239° |
| 2026-04-28 10:08 | 36.32419 | 109.87363 | 32225 ft | 389 kts | 239° |
| 2026-04-28 10:09 | 36.29394 | 109.81824 | 32223 ft | 389 kts | 239° |
| 2026-04-28 10:09 | 36.26365 | 109.76292 | 32200 ft | 389 kts | 238° |
| 2026-04-28 10:10 | 36.23336 | 109.70750 | 32208 ft | 390 kts | 238° |
| 2026-04-28 10:10 | 36.20298 | 109.65192 | 32214 ft | 391 kts | 238° |
| 2026-04-28 10:11 | 36.17246 | 109.59639 | 32215 ft | 391 kts | 238° |
| 2026-04-28 10:11 | 36.14188 | 109.54100 | 32218 ft | 391 kts | 238° |
| 2026-04-28 10:12 | 36.11132 | 109.48547 | 32221 ft | 391 kts | 239° |
| 2026-04-28 10:12 | 36.08068 | 109.42995 | 32188 ft | 392 kts | 238° |
| 2026-04-28 10:13 | 36.04998 | 109.37449 | 32200 ft | 392 kts | 238° |
| 2026-04-28 10:13 | 36.01925 | 109.31891 | 32200 ft | 393 kts | 238° |
| 2026-04-28 10:14 | 35.98853 | 109.26349 | 32204 ft | 393 kts | 238° |
| 2026-04-28 10:14 | 35.95404 | 109.21110 | 32213 ft | 400 kts | 226° |
| 2026-04-28 10:15 | 35.90578 | 109.17534 | 32179 ft | 412 kts | 212° |
| 2026-04-28 10:15 | 35.85409 | 109.14474 | 32197 ft | 414 kts | 212° |
| 2026-04-28 10:16 | 35.79983 | 109.11926 | 32207 ft | 419 kts | 207° |
| 2026-04-28 10:16 | 35.74506 | 109.09489 | 32211 ft | 419 kts | 207° |
| 2026-04-28 10:17 | 35.69033 | 109.07059 | 32220 ft | 419 kts | 207° |
| 2026-04-28 10:17 | 35.63551 | 109.04622 | 32190 ft | 420 kts | 207° |
| 2026-04-28 10:18 | 35.58048 | 109.02179 | 32198 ft | 422 kts | 207° |
| 2026-04-28 10:18 | 35.52539 | 108.99740 | 32203 ft | 422 kts | 207° |
| 2026-04-28 10:19 | 35.47014 | 108.97294 | 32207 ft | 423 kts | 207° |
| 2026-04-28 10:19 | 35.41475 | 108.94843 | 32202 ft | 425 kts | 207° |
| 2026-04-28 10:20 | 35.35914 | 108.92391 | 32209 ft | 426 kts | 206° |
| 2026-04-28 10:20 | 35.30347 | 108.89947 | 32213 ft | 426 kts | 206° |
| 2026-04-28 10:21 | 35.24786 | 108.87506 | 32214 ft | 426 kts | 206° |
| 2026-04-28 10:21 | 35.19217 | 108.85068 | 32208 ft | 427 kts | 206° |
| 2026-04-28 10:22 | 35.13640 | 108.82614 | 32213 ft | 427 kts | 206° |
| 2026-04-28 10:22 | 35.08060 | 108.80170 | 32218 ft | 426 kts | 206° |
| 2026-04-28 10:23 | 35.02490 | 108.77739 | 32227 ft | 426 kts | 206° |
| 2026-04-28 10:23 | 34.96916 | 108.75309 | 32220 ft | 426 kts | 206° |
| 2026-04-28 10:24 | 34.91338 | 108.72876 | 32217 ft | 426 kts | 206° |
| 2026-04-28 10:24 | 34.85772 | 108.70452 | 32212 ft | 426 kts | 206° |
| 2026-04-28 10:25 | 34.80197 | 108.68037 | 32209 ft | 426 kts | 206° |
| 2026-04-28 10:25 | 34.74643 | 108.65635 | 32194 ft | 427 kts | 206° |
| 2026-04-28 10:26 | 34.69051 | 108.63206 | 32197 ft | 427 kts | 206° |
| 2026-04-28 10:26 | 34.63470 | 108.60786 | 32200 ft | 427 kts | 206° |
| 2026-04-28 10:27 | 34.57880 | 108.58368 | 32192 ft | 427 kts | 206° |
| 2026-04-28 10:27 | 34.52292 | 108.55959 | 32174 ft | 427 kts | 205° |
| 2026-04-28 10:28 | 34.46706 | 108.53560 | 32174 ft | 427 kts | 205° |
| 2026-04-28 10:29 | 34.38324 | 108.49949 | 32177 ft | 427 kts | 205° |
| 2026-04-28 10:29 | 34.32741 | 108.47551 | 32147 ft | 427 kts | 205° |
| 2026-04-28 10:30 | 34.27151 | 108.45156 | 32158 ft | 427 kts | 205° |
| 2026-04-28 10:30 | 34.21560 | 108.42759 | 32176 ft | 427 kts | 205° |
| 2026-04-28 10:31 | 34.15955 | 108.40362 | 32175 ft | 428 kts | 205° |
| 2026-04-28 10:31 | 34.10347 | 108.37971 | 32185 ft | 429 kts | 205° |
| 2026-04-28 10:32 | 34.04734 | 108.35583 | 32178 ft | 429 kts | 205° |
| 2026-04-28 10:32 | 33.99121 | 108.33195 | 32189 ft | 429 kts | 205° |
| 2026-04-28 10:33 | 33.93502 | 108.30812 | 32197 ft | 428 kts | 205° |
| 2026-04-28 10:33 | 33.87895 | 108.28438 | 32201 ft | 428 kts | 205° |
| 2026-04-28 10:34 | 33.82281 | 108.26053 | 32194 ft | 429 kts | 205° |
| 2026-04-28 10:34 | 33.76672 | 108.23670 | 32227 ft | 429 kts | 205° |
| 2026-04-28 10:35 | 33.71040 | 108.21290 | 32220 ft | 430 kts | 205° |
| 2026-04-28 10:35 | 33.65407 | 108.18912 | 32242 ft | 430 kts | 205° |
| 2026-04-28 10:36 | 33.59776 | 108.16539 | 32218 ft | 430 kts | 205° |
| 2026-04-28 10:36 | 33.54132 | 108.14164 | 32226 ft | 431 kts | 204° |
| 2026-04-28 10:37 | 33.48487 | 108.11792 | 32233 ft | 431 kts | 204° |
| 2026-04-28 10:37 | 33.42870 | 108.09344 | 32238 ft | 428 kts | 210° |
| 2026-04-28 10:38 | 33.38001 | 108.05467 | 32227 ft | 420 kts | 223° |
| 2026-04-28 10:38 | 33.33485 | 108.01002 | 32237 ft | 423 kts | 223° |
| 2026-04-28 10:39 | 33.28951 | 107.96563 | 32244 ft | 423 kts | 222° |
| 2026-04-28 10:39 | 33.24412 | 107.92120 | 32254 ft | 422 kts | 223° |
| 2026-04-28 10:40 | 33.19894 | 107.87661 | 32245 ft | 422 kts | 223° |
| 2026-04-28 10:40 | 33.15394 | 107.83219 | 32220 ft | 422 kts | 223° |
| 2026-04-28 10:41 | 33.10881 | 107.78775 | 32231 ft | 422 kts | 223° |
| 2026-04-28 10:41 | 33.06360 | 107.74328 | 32230 ft | 423 kts | 222° |
| 2026-04-28 10:42 | 33.01825 | 107.69870 | 32233 ft | 424 kts | 222° |
| 2026-04-28 10:42 | 32.97281 | 107.65417 | 32233 ft | 424 kts | 222° |
| 2026-04-28 10:43 | 32.92732 | 107.60963 | 32218 ft | 424 kts | 222° |
| 2026-04-28 10:43 | 32.88171 | 107.56506 | 32222 ft | 426 kts | 222° |
| 2026-04-28 10:44 | 32.83599 | 107.52045 | 32228 ft | 426 kts | 222° |
| 2026-04-28 10:44 | 32.79506 | 107.47046 | 32226 ft | 423 kts | 235° |
| 2026-04-28 10:45 | 32.76077 | 107.41389 | 32229 ft | 423 kts | 235° |
| 2026-04-28 10:45 | 32.72626 | 107.35741 | 32232 ft | 423 kts | 235° |
| 2026-04-28 10:46 | 32.69164 | 107.30095 | 32230 ft | 424 kts | 235° |
| 2026-04-28 10:46 | 32.65698 | 107.24451 | 32227 ft | 424 kts | 235° |
| 2026-04-28 10:47 | 32.62235 | 107.18796 | 32228 ft | 425 kts | 235° |
| 2026-04-28 10:47 | 32.58771 | 107.13127 | 32229 ft | 425 kts | 235° |
| 2026-04-28 10:48 | 32.55292 | 107.07483 | 32232 ft | 425 kts | 234° |
| 2026-04-28 10:48 | 32.51810 | 107.01845 | 32218 ft | 425 kts | 234° |
| 2026-04-28 10:49 | 32.48329 | 106.96200 | 32225 ft | 425 kts | 234° |
| 2026-04-28 10:49 | 32.44842 | 106.90553 | 32223 ft | 426 kts | 234° |
| 2026-04-28 10:50 | 32.41350 | 106.84911 | 32218 ft | 425 kts | 233° |
| 2026-04-28 10:50 | 32.37859 | 106.79278 | 32218 ft | 426 kts | 233° |
| 2026-04-28 10:51 | 32.34360 | 106.73638 | 32215 ft | 426 kts | 233° |
| 2026-04-28 10:51 | 32.30866 | 106.68004 | 32229 ft | 425 kts | 234° |
| 2026-04-28 10:52 | 32.27360 | 106.62386 | 32197 ft | 426 kts | 233° |
| 2026-04-28 10:52 | 32.23826 | 106.56771 | 32196 ft | 427 kts | 233° |
| 2026-04-28 10:53 | 32.20283 | 106.51149 | 32205 ft | 428 kts | 233° |
| 2026-04-28 10:53 | 32.16742 | 106.45525 | 32191 ft | 428 kts | 233° |
| 2026-04-28 10:54 | 32.13195 | 106.39900 | 32193 ft | 428 kts | 233° |
| 2026-04-28 10:54 | 32.09633 | 106.34285 | 32203 ft | 428 kts | 233° |
| 2026-04-28 10:55 | 32.06071 | 106.28665 | 32182 ft | 429 kts | 233° |
| 2026-04-28 10:55 | 32.02509 | 106.23035 | 32187 ft | 429 kts | 232° |
| 2026-04-28 10:56 | 31.98954 | 106.17424 | 32185 ft | 430 kts | 233° |
| 2026-04-28 10:56 | 31.95383 | 106.11789 | 32187 ft | 430 kts | 233° |
| 2026-04-28 10:57 | 31.91806 | 106.06158 | 32187 ft | 430 kts | 233° |
| 2026-04-28 10:57 | 31.88219 | 106.00537 | 32186 ft | 430 kts | 233° |
| 2026-04-28 10:58 | 31.84629 | 105.94922 | 32170 ft | 431 kts | 233° |
| 2026-04-28 10:58 | 31.81046 | 105.89310 | 32178 ft | 432 kts | 233° |
| 2026-04-28 10:59 | 31.77440 | 105.83675 | 32182 ft | 432 kts | 233° |
| 2026-04-28 10:59 | 31.73826 | 105.78037 | 32191 ft | 433 kts | 233° |
| 2026-04-28 11:00 | 31.70207 | 105.72403 | 32192 ft | 433 kts | 233° |
| 2026-04-28 11:00 | 31.66596 | 105.66765 | 32197 ft | 433 kts | 233° |
| 2026-04-28 11:01 | 31.62974 | 105.61141 | 32187 ft | 433 kts | 233° |
| 2026-04-28 11:01 | 31.59341 | 105.55512 | 32185 ft | 434 kts | 233° |
| 2026-04-28 11:02 | 31.55697 | 105.49876 | 32188 ft | 435 kts | 233° |
| 2026-04-28 11:02 | 31.52066 | 105.44256 | 32190 ft | 435 kts | 233° |
| 2026-04-28 11:03 | 31.48415 | 105.38619 | 32192 ft | 435 kts | 233° |
| 2026-04-28 11:03 | 31.44766 | 105.32991 | 32197 ft | 435 kts | 233° |
| 2026-04-28 11:04 | 31.41123 | 105.27345 | 32189 ft | 435 kts | 234° |
| 2026-04-28 11:04 | 31.37633 | 105.21569 | 32193 ft | 436 kts | 236° |
| 2026-04-28 11:05 | 31.34218 | 105.15720 | 32191 ft | 437 kts | 236° |
| 2026-04-28 11:05 | 31.30781 | 105.09883 | 32194 ft | 437 kts | 236° |
| 2026-04-28 11:06 | 31.27306 | 105.04067 | 32201 ft | 437 kts | 235° |
| 2026-04-28 11:06 | 31.23812 | 104.98264 | 32203 ft | 437 kts | 235° |
| 2026-04-28 11:07 | 31.20323 | 104.92473 | 32219 ft | 437 kts | 235° |
| 2026-04-28 11:07 | 31.16839 | 104.86672 | 32205 ft | 437 kts | 235° |
| 2026-04-28 11:08 | 31.13361 | 104.80896 | 32207 ft | 437 kts | 235° |
| 2026-04-28 11:08 | 31.09863 | 104.75100 | 32211 ft | 437 kts | 235° |
| 2026-04-28 11:09 | 31.06367 | 104.69316 | 32215 ft | 437 kts | 235° |
| 2026-04-28 11:09 | 31.02842 | 104.63555 | 32221 ft | 437 kts | 234° |
| 2026-04-28 11:10 | 30.99220 | 104.57877 | 32218 ft | 437 kts | 234° |
| 2026-04-28 11:10 | 30.95586 | 104.52222 | 32198 ft | 438 kts | 234° |
| 2026-04-28 11:11 | 30.91970 | 104.46548 | 32202 ft | 439 kts | 234° |
| 2026-04-28 11:11 | 30.88337 | 104.40842 | 32205 ft | 440 kts | 234° |
| 2026-04-28 11:12 | 30.84666 | 104.35153 | 32214 ft | 441 kts | 233° |
| 2026-04-28 11:12 | 30.80920 | 104.29545 | 32214 ft | 441 kts | 233° |
| 2026-04-28 11:13 | 30.77157 | 104.23954 | 32217 ft | 441 kts | 233° |
| 2026-04-28 11:13 | 30.73401 | 104.18335 | 32218 ft | 441 kts | 233° |
| 2026-04-28 11:14 | 30.69925 | 104.13130 | 32212 ft | 441 kts | 233° |
| 2026-04-28 11:14 | 30.65998 | 104.07249 | 32215 ft | 443 kts | 233° |
| 2026-04-28 11:15 | 30.62232 | 104.01605 | 32213 ft | 443 kts | 234° |
| 2026-04-28 11:15 | 30.59544 | 103.95243 | 32218 ft | 443 kts | 255° |
| 2026-04-28 11:15 | 30.59088 | 103.91719 | 32218 ft | 445 kts | 266° |
| 2026-04-28 11:16 | 30.59262 | 103.88128 | 32219 ft | 448 kts | 277° |
| 2026-04-28 11:16 | 30.61018 | 103.81172 | 32231 ft | 451 kts | 285° |
| 2026-04-28 11:16 | 30.61980 | 103.77714 | 32128 ft | 452 kts | 284° |
| 2026-04-28 11:17 | 30.62923 | 103.74243 | 32060 ft | 448 kts | 284° |
| 2026-04-28 11:17 | 30.63859 | 103.70795 | 32230 ft | 450 kts | 284° |
| 2026-04-28 11:17 | 30.64799 | 103.67333 | 32247 ft | 451 kts | 284° |
| 2026-04-28 11:18 | 30.66579 | 103.60373 | 32255 ft | 450 kts | 283° |
| 2026-04-28 11:18 | 30.68248 | 103.53375 | 32258 ft | 450 kts | 282° |
| 2026-04-28 11:19 | 30.69900 | 103.46385 | 32273 ft | 448 kts | 282° |
| 2026-04-28 11:19 | 30.71569 | 103.39437 | 32283 ft | 447 kts | 282° |
| 2026-04-28 11:20 | 30.73251 | 103.32492 | 32297 ft | 447 kts | 282° |
| 2026-04-28 11:20 | 30.74925 | 103.25557 | 32293 ft | 446 kts | 282° |
| 2026-04-28 11:21 | 30.76589 | 103.18618 | 32309 ft | 446 kts | 282° |
| 2026-04-28 11:21 | 30.78240 | 103.11679 | 32303 ft | 446 kts | 281° |
| 2026-04-28 11:22 | 30.79893 | 103.04729 | 32306 ft | 446 kts | 281° |
| 2026-04-28 11:22 | 30.80554 | 102.97667 | 32304 ft | 439 kts | 266° |
| 2026-04-28 11:23 | 30.80416 | 102.90593 | 32276 ft | 439 kts | 266° |
| 2026-04-28 11:23 | 30.80289 | 102.83507 | 32286 ft | 440 kts | 266° |
| 2026-04-28 11:24 | 30.80161 | 102.76412 | 32273 ft | 439 kts | 266° |
| 2026-04-28 11:24 | 30.80026 | 102.69326 | 32263 ft | 439 kts | 266° |
| 2026-04-28 11:25 | 30.79888 | 102.62233 | 32229 ft | 440 kts | 266° |
| 2026-04-28 11:25 | 30.79755 | 102.55136 | 32252 ft | 440 kts | 266° |
| 2026-04-28 11:26 | 30.79611 | 102.48039 | 32254 ft | 440 kts | 266° |
| 2026-04-28 11:26 | 30.79459 | 102.40940 | 32219 ft | 440 kts | 266° |
| 2026-04-28 11:27 | 30.79303 | 102.33838 | 32231 ft | 440 kts | 266° |
| 2026-04-28 11:27 | 30.79144 | 102.26746 | 32193 ft | 440 kts | 266° |
| 2026-04-28 11:28 | 30.78981 | 102.19644 | 32194 ft | 440 kts | 266° |
| 2026-04-28 11:28 | 30.78818 | 102.12549 | 32163 ft | 440 kts | 266° |
| 2026-04-28 11:29 | 30.78647 | 102.05457 | 32158 ft | 440 kts | 266° |
| 2026-04-28 11:29 | 30.78475 | 101.98366 | 32149 ft | 440 kts | 266° |
| 2026-04-28 11:30 | 30.78306 | 101.91267 | 32143 ft | 441 kts | 267° |
| 2026-04-28 11:30 | 30.79090 | 101.80602 | 32140 ft | 443 kts | 272° |
| 2026-04-28 11:31 | 30.79681 | 101.73477 | 32136 ft | 443 kts | 272° |
| 2026-04-28 11:31 | 30.80267 | 101.66367 | 32151 ft | 443 kts | 272° |
| 2026-04-28 11:32 | 30.80855 | 101.59256 | 32156 ft | 442 kts | 272° |
| 2026-04-28 11:32 | 30.81438 | 101.52167 | 32155 ft | 440 kts | 272° |
| 2026-04-28 11:33 | 30.82010 | 101.45103 | 32146 ft | 439 kts | 272° |
| 2026-04-28 11:33 | 30.82570 | 101.38051 | 32138 ft | 438 kts | 272° |
| 2026-04-28 11:34 | 30.83132 | 101.31025 | 32135 ft | 438 kts | 272° |
| 2026-04-28 11:34 | 30.83692 | 101.23981 | 32126 ft | 438 kts | 272° |
| 2026-04-28 11:35 | 30.84246 | 101.16943 | 32114 ft | 438 kts | 272° |
| 2026-04-28 11:35 | 30.84799 | 101.09902 | 32111 ft | 437 kts | 272° |
| 2026-04-28 11:36 | 30.85343 | 101.02872 | 32106 ft | 437 kts | 272° |
| 2026-04-28 11:36 | 30.85885 | 100.95838 | 32101 ft | 437 kts | 272° |
| 2026-04-28 11:37 | 30.86426 | 100.88800 | 32094 ft | 437 kts | 272° |
| 2026-04-28 11:37 | 30.86955 | 100.81773 | 32088 ft | 437 kts | 272° |
| 2026-04-28 11:38 | 30.87485 | 100.74737 | 32092 ft | 437 kts | 272° |
| 2026-04-28 11:38 | 30.88011 | 100.67690 | 32090 ft | 438 kts | 272° |
| 2026-04-28 11:39 | 30.88534 | 100.60652 | 32090 ft | 437 kts | 272° |
| 2026-04-28 11:39 | 30.89057 | 100.53615 | 32101 ft | 437 kts | 273° |
| 2026-04-28 11:40 | 30.89576 | 100.46580 | 32100 ft | 436 kts | 273° |
| 2026-04-28 11:40 | 30.90084 | 100.39556 | 32088 ft | 436 kts | 273° |
| 2026-04-28 11:41 | 30.90586 | 100.32527 | 32083 ft | 436 kts | 273° |
| 2026-04-28 11:41 | 30.91091 | 100.25509 | 32083 ft | 436 kts | 273° |
| 2026-04-28 11:42 | 30.91593 | 100.18490 | 32066 ft | 436 kts | 274° |
| 2026-04-28 11:42 | 30.92089 | 100.11456 | 32061 ft | 438 kts | 274° |
| 2026-04-28 11:43 | 30.92584 | 100.04384 | 32068 ft | 440 kts | 274° |
| 2026-04-28 11:43 | 30.93078 | 99.97305 | 32077 ft | 440 kts | 274° |
| 2026-04-28 11:44 | 30.93639 | 99.90219 | 32078 ft | 440 kts | 275° |
| 2026-04-28 11:44 | 30.94226 | 99.83133 | 32088 ft | 441 kts | 275° |
| 2026-04-28 11:45 | 30.94788 | 99.76024 | 32085 ft | 442 kts | 275° |
| 2026-04-28 11:45 | 30.95344 | 99.68902 | 32087 ft | 443 kts | 275° |
| 2026-04-28 11:46 | 30.95902 | 99.61751 | 32089 ft | 444 kts | 275° |
| 2026-04-28 11:46 | 30.96449 | 99.54600 | 32091 ft | 444 kts | 275° |
| 2026-04-28 11:47 | 30.96994 | 99.47444 | 32083 ft | 445 kts | 275° |
| 2026-04-28 11:47 | 30.97533 | 99.40283 | 32087 ft | 445 kts | 276° |
| 2026-04-28 11:48 | 30.98074 | 99.33118 | 32076 ft | 445 kts | 276° |
| 2026-04-28 11:48 | 30.98614 | 99.25949 | 32082 ft | 445 kts | 276° |
| 2026-04-28 11:49 | 30.99141 | 99.18775 | 32069 ft | 445 kts | 276° |
| 2026-04-28 11:49 | 30.99670 | 99.11602 | 32064 ft | 445 kts | 276° |
| 2026-04-28 11:50 | 31.00194 | 99.04430 | 32044 ft | 445 kts | 276° |
| 2026-04-28 11:50 | 31.00707 | 98.97249 | 32039 ft | 445 kts | 276° |
| 2026-04-28 11:51 | 31.01223 | 98.90070 | 32043 ft | 446 kts | 276° |
| 2026-04-28 11:51 | 31.01740 | 98.82890 | 32048 ft | 445 kts | 276° |
| 2026-04-28 11:52 | 31.02252 | 98.75709 | 32038 ft | 445 kts | 276° |
| 2026-04-28 11:52 | 31.02757 | 98.68534 | 32041 ft | 445 kts | 276° |
| 2026-04-28 11:53 | 31.03276 | 98.61365 | 32044 ft | 444 kts | 277° |
| 2026-04-28 11:53 | 31.03882 | 98.54224 | 32038 ft | 443 kts | 277° |
| 2026-04-28 11:54 | 31.04500 | 98.47085 | 32035 ft | 443 kts | 277° |
| 2026-04-28 11:54 | 31.05097 | 98.39951 | 32026 ft | 443 kts | 277° |
| 2026-04-28 11:55 | 31.05683 | 98.32809 | 32024 ft | 443 kts | 277° |
| 2026-04-28 11:55 | 31.06262 | 98.25659 | 32032 ft | 444 kts | 277° |
| 2026-04-28 11:56 | 31.06835 | 98.18509 | 32038 ft | 443 kts | 277° |
| 2026-04-28 11:56 | 31.07401 | 98.11353 | 32043 ft | 444 kts | 277° |
| 2026-04-28 11:57 | 31.07972 | 98.04197 | 32053 ft | 444 kts | 277° |
| 2026-04-28 11:57 | 31.08553 | 97.97038 | 32055 ft | 444 kts | 277° |
| 2026-04-28 11:58 | 31.09128 | 97.89881 | 32052 ft | 444 kts | 277° |
| 2026-04-28 11:58 | 31.09694 | 97.82730 | 32068 ft | 444 kts | 277° |
| 2026-04-28 11:59 | 31.10258 | 97.75581 | 32064 ft | 443 kts | 277° |
| 2026-04-28 11:59 | 31.10820 | 97.68440 | 32056 ft | 443 kts | 277° |
| 2026-04-28 12:00 | 31.11378 | 97.61300 | 32053 ft | 442 kts | 277° |
| 2026-04-28 12:00 | 31.11922 | 97.54163 | 32033 ft | 442 kts | 277° |
| 2026-04-28 12:01 | 31.12462 | 97.47033 | 32034 ft | 442 kts | 277° |
| 2026-04-28 12:01 | 31.13003 | 97.39898 | 32039 ft | 443 kts | 277° |
| 2026-04-28 12:02 | 31.13543 | 97.32755 | 32035 ft | 442 kts | 277° |
| 2026-04-28 12:02 | 31.14078 | 97.25621 | 32030 ft | 443 kts | 277° |
| 2026-04-28 12:03 | 31.14467 | 97.19660 | 32031 ft | 444 kts | 272° |
| 2026-04-28 12:03 | 31.14055 | 97.14876 | 32032 ft | 448 kts | 261° |
| 2026-04-28 12:03 | 31.13309 | 97.11343 | 32034 ft | 449 kts | 259° |
| 2026-04-28 12:04 | 31.12045 | 97.05458 | 32030 ft | 449 kts | 259° |
| 2026-04-28 12:04 | 31.10287 | 96.97216 | 32048 ft | 450 kts | 259° |
| 2026-04-28 12:05 | 31.08769 | 96.90156 | 32050 ft | 450 kts | 259° |
| 2026-04-28 12:05 | 31.07244 | 96.83090 | 32057 ft | 450 kts | 259° |
| 2026-04-28 12:06 | 31.05729 | 96.76037 | 32062 ft | 449 kts | 259° |
| 2026-04-28 12:06 | 31.04198 | 96.68983 | 32054 ft | 449 kts | 259° |
| 2026-04-28 12:07 | 31.02661 | 96.61939 | 32055 ft | 449 kts | 259° |
| 2026-04-28 12:07 | 31.01127 | 96.54896 | 32070 ft | 450 kts | 259° |
| 2026-04-28 12:08 | 30.99586 | 96.47849 | 32061 ft | 449 kts | 259° |
| 2026-04-28 12:08 | 30.98041 | 96.40811 | 32056 ft | 449 kts | 260° |
| 2026-04-28 12:09 | 30.96543 | 96.33778 | 32046 ft | 448 kts | 260° |
| 2026-04-28 12:09 | 30.95067 | 96.26746 | 32050 ft | 448 kts | 260° |
| 2026-04-28 12:10 | 30.93583 | 96.19715 | 32047 ft | 448 kts | 260° |
| 2026-04-28 12:10 | 30.92185 | 96.13147 | 32044 ft | 447 kts | 260° |
| 2026-04-28 12:11 | 30.90698 | 96.06184 | 32021 ft | 447 kts | 260° |
| 2026-04-28 12:11 | 30.89196 | 95.99167 | 32027 ft | 447 kts | 260° |
| 2026-04-28 12:12 | 30.87693 | 95.92162 | 32027 ft | 447 kts | 260° |
| 2026-04-28 12:12 | 30.86186 | 95.85160 | 32031 ft | 447 kts | 260° |
| 2026-04-28 12:13 | 30.84672 | 95.78163 | 32028 ft | 447 kts | 260° |
| 2026-04-28 12:13 | 30.83157 | 95.71166 | 32027 ft | 447 kts | 260° |
| 2026-04-28 12:14 | 30.81705 | 95.64158 | 32014 ft | 446 kts | 260° |
| 2026-04-28 12:14 | 30.80286 | 95.57144 | 32022 ft | 447 kts | 260° |
| 2026-04-28 12:15 | 30.78851 | 95.50129 | 32035 ft | 447 kts | 260° |
| 2026-04-28 12:15 | 30.77391 | 95.43122 | 32036 ft | 447 kts | 260° |
| 2026-04-28 12:16 | 30.75928 | 95.36119 | 32041 ft | 447 kts | 260° |
| 2026-04-28 12:16 | 30.74463 | 95.29117 | 32064 ft | 446 kts | 259° |
| 2026-04-28 12:17 | 30.72993 | 95.22132 | 32083 ft | 445 kts | 259° |
| 2026-04-28 12:17 | 30.71528 | 95.15158 | 32101 ft | 445 kts | 259° |
| 2026-04-28 12:18 | 30.70070 | 95.08198 | 32102 ft | 444 kts | 259° |
| 2026-04-28 12:18 | 30.68603 | 95.01231 | 32107 ft | 444 kts | 259° |
| 2026-04-28 12:19 | 30.67125 | 94.94288 | 32096 ft | 444 kts | 259° |
| 2026-04-28 12:19 | 30.65650 | 94.87340 | 32108 ft | 443 kts | 259° |
| 2026-04-28 12:20 | 30.64170 | 94.80403 | 32117 ft | 443 kts | 259° |
| 2026-04-28 12:20 | 30.62689 | 94.73486 | 32119 ft | 442 kts | 259° |
| 2026-04-28 12:21 | 30.61212 | 94.66577 | 32117 ft | 441 kts | 260° |
| 2026-04-28 12:21 | 30.59838 | 94.60144 | 32101 ft | 441 kts | 260° |
| 2026-04-28 12:22 | 30.58251 | 94.52780 | 32108 ft | 441 kts | 259° |
| 2026-04-28 12:22 | 30.56760 | 94.45885 | 32114 ft | 441 kts | 259° |
| 2026-04-28 12:23 | 30.55270 | 94.39006 | 32131 ft | 441 kts | 259° |
| 2026-04-28 12:23 | 30.53774 | 94.32122 | 32126 ft | 441 kts | 259° |
| 2026-04-28 12:24 | 30.52273 | 94.25244 | 32140 ft | 441 kts | 259° |
| 2026-04-28 12:24 | 30.50773 | 94.18368 | 32139 ft | 441 kts | 259° |
| 2026-04-28 12:25 | 30.49320 | 94.11487 | 32152 ft | 440 kts | 260° |
| 2026-04-28 12:25 | 30.47908 | 94.04598 | 32154 ft | 440 kts | 260° |
| 2026-04-28 12:26 | 30.46731 | 93.98853 | 32147 ft | 440 kts | 260° |
| 2026-04-28 12:26 | 30.45055 | 93.90823 | 32146 ft | 440 kts | 260° |
| 2026-04-28 12:27 | 30.43610 | 93.83945 | 32145 ft | 440 kts | 259° |
| 2026-04-28 12:27 | 30.42166 | 93.77063 | 32137 ft | 440 kts | 260° |
| 2026-04-28 12:28 | 30.40718 | 93.70206 | 32147 ft | 438 kts | 260° |
| 2026-04-28 12:28 | 30.39272 | 93.63375 | 32143 ft | 438 kts | 260° |
| 2026-04-28 12:29 | 30.36499 | 93.53283 | 32140 ft | 442 kts | 254° |
| 2026-04-28 12:30 | 30.34430 | 93.46614 | 32088 ft | 441 kts | 253° |
| 2026-04-28 12:30 | 30.32361 | 93.39927 | 32097 ft | 442 kts | 254° |
| 2026-04-28 12:31 | 30.30291 | 93.33235 | 32060 ft | 442 kts | 254° |
| 2026-04-28 12:31 | 30.28208 | 93.26554 | 32059 ft | 442 kts | 253° |
| 2026-04-28 12:32 | 30.26120 | 93.19876 | 32033 ft | 443 kts | 253° |
| 2026-04-28 12:32 | 30.24031 | 93.13186 | 32029 ft | 443 kts | 253° |
| 2026-04-28 12:33 | 30.21945 | 93.06506 | 32034 ft | 443 kts | 253° |
| 2026-04-28 12:33 | 30.19857 | 92.99834 | 32019 ft | 442 kts | 254° |
| 2026-04-28 12:34 | 30.17764 | 92.93170 | 32020 ft | 441 kts | 254° |
| 2026-04-28 12:34 | 30.15676 | 92.86523 | 32003 ft | 441 kts | 254° |
| 2026-04-28 12:35 | 30.13597 | 92.79877 | 32000 ft | 441 kts | 254° |
| 2026-04-28 12:35 | 30.11506 | 92.73239 | 31992 ft | 441 kts | 254° |
| 2026-04-28 12:36 | 30.09403 | 92.66607 | 31958 ft | 441 kts | 253° |
| 2026-04-28 12:36 | 30.07296 | 92.59978 | 31964 ft | 441 kts | 253° |
| 2026-04-28 12:37 | 30.05196 | 92.53323 | 31965 ft | 442 kts | 254° |
| 2026-04-28 12:37 | 30.03122 | 92.46650 | 31971 ft | 443 kts | 254° |
| 2026-04-28 12:38 | 30.01051 | 92.39967 | 31963 ft | 443 kts | 254° |
| 2026-04-28 12:38 | 29.98972 | 92.33278 | 31964 ft | 444 kts | 254° |
| 2026-04-28 12:39 | 29.96878 | 92.26596 | 31930 ft | 444 kts | 253° |
| 2026-04-28 12:39 | 29.94781 | 92.19913 | 31944 ft | 445 kts | 253° |
| 2026-04-28 12:40 | 29.92676 | 92.13213 | 31926 ft | 445 kts | 253° |
| 2026-04-28 12:40 | 29.90564 | 92.06517 | 31918 ft | 445 kts | 253° |
| 2026-04-28 12:41 | 29.88452 | 91.99821 | 31919 ft | 445 kts | 253° |
| 2026-04-28 12:41 | 29.86341 | 91.93130 | 31906 ft | 446 kts | 253° |
| 2026-04-28 12:42 | 29.84218 | 91.86433 | 31890 ft | 447 kts | 252° |
| 2026-04-28 12:42 | 29.82083 | 91.79712 | 31875 ft | 448 kts | 253° |
| 2026-04-28 12:43 | 29.79981 | 91.72979 | 31878 ft | 448 kts | 253° |
| 2026-04-28 12:43 | 29.77907 | 91.66283 | 31869 ft | 449 kts | 253° |
| 2026-04-28 12:44 | 29.75794 | 91.59524 | 31866 ft | 450 kts | 253° |
| 2026-04-28 12:44 | 29.73663 | 91.52766 | 31872 ft | 450 kts | 253° |
| 2026-04-28 12:45 | 29.71538 | 91.46009 | 31576 ft | 449 kts | 252° |
| 2026-04-28 12:45 | 29.70492 | 91.42667 | 31061 ft | 445 kts | 252° |
| 2026-04-28 12:45 | 29.69467 | 91.39388 | 30926 ft | 430 kts | 252° |
| 2026-04-28 12:46 | 29.67526 | 91.33169 | 30663 ft | 403 kts | 253° |
| 2026-04-28 12:46 | 29.66658 | 91.30187 | 30443 ft | 386 kts | 256° |
| 2026-04-28 12:46 | 29.66022 | 91.27232 | 30034 ft | 378 kts | 261° |
| 2026-04-28 12:46 | 29.65606 | 91.24277 | 29535 ft | 373 kts | 265° |
| 2026-04-28 12:47 | 29.65397 | 91.21329 | 28983 ft | 369 kts | 269° |
| 2026-04-28 12:47 | 29.65380 | 91.18411 | 28343 ft | 368 kts | 273° |
| 2026-04-28 12:47 | 29.65527 | 91.15482 | 27623 ft | 367 kts | 272° |
| 2026-04-28 12:47 | 29.65386 | 91.12570 | 26911 ft | 367 kts | 262° |
| 2026-04-28 12:48 | 29.64796 | 91.09723 | 26230 ft | 367 kts | 252° |
| 2026-04-28 12:48 | 29.63808 | 91.07033 | 25590 ft | 366 kts | 243° |
| 2026-04-28 12:48 | 29.62451 | 91.04590 | 24993 ft | 365 kts | 233° |
| 2026-04-28 12:48 | 29.60750 | 91.02445 | 24384 ft | 364 kts | 224° |
| 2026-04-28 12:49 | 29.58757 | 91.00665 | 23775 ft | 363 kts | 214° |
| 2026-04-28 12:49 | 29.56538 | 90.99303 | 23162 ft | 362 kts | 206° |
| 2026-04-28 12:49 | 29.54244 | 90.98136 | 22462 ft | 360 kts | 205° |
| 2026-04-28 12:49 | 29.51968 | 90.96986 | 21845 ft | 356 kts | 205° |
| 2026-04-28 12:50 | 29.49709 | 90.95852 | 21117 ft | 356 kts | 205° |
| 2026-04-28 12:50 | 29.47429 | 90.94710 | 20195 ft | 362 kts | 204° |
| 2026-04-28 12:50 | 29.45080 | 90.93624 | 19294 ft | 367 kts | 197° |
| 2026-04-28 12:50 | 29.42564 | 90.93066 | 18427 ft | 372 kts | 184° |
| 2026-04-28 12:51 | 29.39992 | 90.93159 | 17519 ft | 375 kts | 171° |
| 2026-04-28 12:51 | 29.37510 | 90.93850 | 16604 ft | 377 kts | 168° |
| 2026-04-28 12:51 | 29.35008 | 90.93589 | 16286 ft | 359 kts | 208° |
| 2026-04-28 12:51 | 29.33357 | 90.91554 | 15466 ft | 360 kts | 249° |
| 2026-04-28 12:52 | 29.33204 | 90.88815 | 15331 ft | 337 kts | 286° |
| 2026-04-28 12:52 | 29.34289 | 90.86569 | 15264 ft | 318 kts | 309° |
| 2026-04-28 12:52 | 29.35776 | 90.84575 | 13901 ft | 344 kts | 302° |
| 2026-04-28 12:52 | 29.36715 | 90.82161 | 13820 ft | 324 kts | 283° |
| 2026-04-28 12:53 | 29.37017 | 90.79704 | 13708 ft | 308 kts | 271° |
| 2026-04-28 12:53 | 29.36556 | 90.77283 | 12905 ft | 315 kts | 237° |
| 2026-04-28 12:53 | 29.35232 | 90.75492 | 12887 ft | 278 kts | 217° |
| 2026-04-28 12:53 | 29.34194 | 90.74768 | 13061 ft | 250 kts | 201° |
| 2026-04-28 12:54 | 29.32198 | 90.74756 | 13260 ft | 201 kts | 152° |
| 2026-04-28 12:54 | 29.31264 | 90.75818 | 13303 ft | 186 kts | 123° |
| 2026-04-28 12:54 | 29.30644 | 90.77092 | 13437 ft | 184 kts | 115° |
| 2026-04-28 12:54 | 29.30153 | 90.78451 | 13266 ft | 188 kts | 108° |
| 2026-04-28 12:55 | 29.29820 | 90.79907 | 12901 ft | 190 kts | 99° |
| 2026-04-28 12:55 | 29.29703 | 90.80894 | 12666 ft | 186 kts | 94° |
| 2026-04-28 12:55 | 29.29682 | 90.82816 | 12342 ft | 180 kts | 88° |
| 2026-04-28 12:55 | 29.29704 | 90.84233 | 12124 ft | 179 kts | 88° |
| 2026-04-28 12:56 | 29.29726 | 90.85628 | 11915 ft | 177 kts | 88° |
| 2026-04-28 12:56 | 29.29747 | 90.87031 | 11717 ft | 177 kts | 89° |
| 2026-04-28 12:56 | 29.29769 | 90.88430 | 11601 ft | 174 kts | 88° |
| 2026-04-28 12:56 | 29.29793 | 90.89821 | 11485 ft | 173 kts | 88° |
| 2026-04-28 12:57 | 29.29807 | 90.91023 | 11472 ft | 114 kts | 90° |
| 2026-04-28 12:57 | 29.29813 | 90.91584 | 11473 ft | 27 kts | 89° |
| 2026-04-28 12:57 | 29.29816 | 90.91754 | 11450 ft | 21 kts | 89° |
| 2026-04-28 12:57 | 29.29815 | 90.91923 | 11450 ft | 21 kts | 95° |
| 2026-04-28 12:58 | 29.29765 | 90.92076 | 11453 ft | 21 kts | 117° |
| 2026-04-28 12:58 | 29.29698 | 90.92225 | 11445 ft | 20 kts | 128° |
| 2026-04-28 12:58 | 29.29654 | 90.92215 | 11441 ft | 5 kts | 266° |
| 2026-04-28 12:58 | 29.29652 | 90.92159 | 11451 ft | 10 kts | 268° |
| 2026-04-28 12:59 | 29.29652 | 90.92050 | 11447 ft | 15 kts | 271° |
| 2026-04-28 12:59 | 29.29654 | 90.91928 | 11452 ft | 15 kts | 269° |
| 2026-04-28 12:59 | 29.29651 | 90.91807 | 11453 ft | 15 kts | 269° |
| 2026-04-28 12:59 | 29.29649 | 90.91687 | 11453 ft | 15 kts | 269° |
| 2026-04-28 13:00 | 29.29647 | 90.91565 | 11472 ft | 15 kts | 269° |
| 2026-04-28 13:00 | 29.29645 | 90.91444 | 11472 ft | 16 kts | 269° |
| 2026-04-28 13:00 | 29.29644 | 90.91319 | 11467 ft | 16 kts | 269° |
| 2026-04-28 13:00 | 29.29642 | 90.91192 | 11472 ft | 16 kts | 269° |
| 2026-04-28 13:01 | 29.29640 | 90.91062 | 11472 ft | 16 kts | 269° |
| 2026-04-28 13:01 | 29.29638 | 90.90931 | 11472 ft | 16 kts | 269° |
| 2026-04-28 13:01 | 29.29636 | 90.90800 | 11472 ft | 16 kts | 269° |
| 2026-04-28 13:01 | 29.29634 | 90.90669 | 11472 ft | 17 kts | 269° |
| 2026-04-28 13:02 | 29.29631 | 90.90539 | 11469 ft | 16 kts | 269° |
| 2026-04-28 13:02 | 29.29629 | 90.90409 | 11470 ft | 16 kts | 269° |
| 2026-04-28 13:02 | 29.29628 | 90.90282 | 11471 ft | 16 kts | 269° |
| 2026-04-28 13:02 | 29.29626 | 90.90198 | 11471 ft | 16 kts | 269° |
| 2026-04-28 13:03 | 29.29614 | 90.90032 | 11463 ft | 16 kts | 242° |
| 2026-04-28 13:03 | 29.29528 | 90.89975 | 11474 ft | 15 kts | 244° |
| 2026-04-28 13:03 | 29.29524 | 90.89859 | 11475 ft | 15 kts | 270° |
| 2026-04-28 13:03 | 29.29524 | 90.89743 | 11475 ft | 15 kts | 270° |
| 2026-04-28 13:04 | 29.29520 | 90.89626 | 11472 ft | 15 kts | 268° |
| 2026-04-28 13:04 | 29.29519 | 90.89507 | 11472 ft | 15 kts | 269° |
| 2026-04-28 13:04 | 29.29518 | 90.89387 | 11472 ft | 15 kts | 269° |
| 2026-04-28 13:04 | 29.29489 | 90.89323 | 11468 ft | 14 kts | 206° |
| 2026-04-28 13:05 | 29.29385 | 90.89295 | 11467 ft | 4 kts | 150° |
| 2026-04-28 13:05 | 29.29359 | 90.89319 | 11467 ft | 5 kts | 142° |
| 2026-04-28 13:05 | 29.29343 | 90.89332 | 11469 ft | 0 kts | 142° |